sim
Sign-in with your pilot id or email,
or register
Callsign
Passwort

Schedule Details

Flight Number: DLH2059 (2)
Departure: Hamburg Airport (EDDH) at 07:50
Arrival: Munich Airport (EDDM) at 09:05
Route: Lufthansa Passenger Schedule. Enter filed route here before submitting Pirep.

Weather Information
Getting current METAR information for EDDH 010620Z 10009KT CAVOK 11/09 Q1008 NOSIG
Getting current METAR information for EDDM 010620Z 00000KT 0800 R08L/0550D R08R/0275N FG SCT001 05/04 Q1009 BECMG 1500 BCFG

Schedule Frequency

Route Map